Terminal Aerodrome Forecast
Issued by NWS

Home | Current Version | Previous Version | Text Only | Print | Product List | Glossary On
Versions: 1 2 3 4 5 6 7 8 9 10 11 12 13 14 15 16 17 18 19
000
FTUS43 KOAX 160900 AAB
TAFBFF
TAF AMD
KBFF 160959Z 1610/1706 31021G33KT P6SM BKN020 BKN025
     FM161300 31014KT P6SM SCT025 SCT060
     FM161500 31025G35KT P6SM BKN060
     FM170200 VRB05KT P6SM BKN060=

USA.gov is the U.S. government's official web portal to all federal, state and local government web resources and services.